createdAt,value
2023-02-11T00:00:15.134Z,1.45
2023-02-11T00:02:41.611Z,1.45
2023-02-11T00:05:08.459Z,1.67
2023-02-11T00:07:35.421Z,1.60
2023-02-11T00:10:03.346Z,1.63
2023-02-11T00:12:30.062Z,1.40
2023-02-11T00:14:57.232Z,1.13
2023-02-11T00:17:23.818Z,0.80
2023-02-11T00:19:51.494Z,1.42
2023-02-11T00:22:18.734Z,1.58
2023-02-11T00:24:45.937Z,1.20
2023-02-11T00:27:12.422Z,1.27
2023-02-11T00:29:39.287Z,1.77
2023-02-11T00:32:07.498Z,1.30
2023-02-11T00:34:35.100Z,1.00
2023-02-11T00:37:02.398Z,1.02
2023-02-11T00:39:29.120Z,1.33
2023-02-11T00:41:55.650Z,1.10
2023-02-11T00:44:22.153Z,1.17
2023-02-11T00:46:48.671Z,1.20
2023-02-11T00:49:15.524Z,1.45
2023-02-11T00:51:42.337Z,1.10
2023-02-11T00:54:08.860Z,1.07
2023-02-11T00:56:36.561Z,1.58
2023-02-11T00:59:03.372Z,1.17
2023-02-11T01:01:29.912Z,1.23
2023-02-11T01:03:56.456Z,0.95
2023-02-11T01:06:23.087Z,1.00
2023-02-11T01:08:49.649Z,1.20
2023-02-11T01:11:19.843Z,0.70
2023-02-11T01:13:47.710Z,1.45
2023-02-11T01:16:15.428Z,1.00
2023-02-11T01:18:44.257Z,1.10
2023-02-11T01:21:11.232Z,0.90
2023-02-11T01:23:37.816Z,1.27
2023-02-11T01:26:04.508Z,1.27
2023-02-11T01:28:31.919Z,1.45
2023-02-11T01:31:00.815Z,1.53
2023-02-11T01:33:27.591Z,1.40
2023-02-11T01:35:54.409Z,1.17
2023-02-11T01:38:24.245Z,0.90
2023-02-11T01:40:57.132Z,1.50
2023-02-11T01:43:26.034Z,1.70
2023-02-11T01:45:58.532Z,1.67
2023-02-11T01:48:33.671Z,1.10
2023-02-11T01:51:06.408Z,1.10
2023-02-11T01:53:54.393Z,1.63
2023-02-11T01:56:41.592Z,1.00
2023-02-11T01:59:16.756Z,1.15
2023-02-11T02:01:49.073Z,1.83
2023-02-11T02:04:19.036Z,1.55
2023-02-11T02:06:53.432Z,1.35
2023-02-11T02:09:25.547Z,1.37
2023-02-11T02:11:52.413Z,1.30
2023-02-11T02:14:19.353Z,1.25
2023-02-11T02:16:46.310Z,1.25
2023-02-11T02:19:37.851Z,1.30
2023-02-11T02:22:53.416Z,1.20
2023-02-11T02:25:42.519Z,1.15
2023-02-11T02:28:23.269Z,2.17
2023-02-11T02:30:58.373Z,1.10
2023-02-11T02:33:32.186Z,1.40
2023-02-11T02:36:06.156Z,1.57
2023-02-11T02:38:40.446Z,1.20
2023-02-11T02:41:14.145Z,1.77
2023-02-11T02:43:44.746Z,1.13
2023-02-11T02:46:15.722Z,2.10
2023-02-11T02:48:43.122Z,1.93
2023-02-11T02:51:30.396Z,1.65
2023-02-11T02:53:59.833Z,1.73
2023-02-11T02:56:47.338Z,1.30
2023-02-11T02:59:45.885Z,1.50
2023-02-11T03:02:24.875Z,1.67
2023-02-11T03:05:01.865Z,1.58
2023-02-11T03:07:38.144Z,1.60
2023-02-11T03:10:15.238Z,1.85
2023-02-11T03:12:44.766Z,1.70
2023-02-11T03:15:13.177Z,1.90
2023-02-11T03:17:44.516Z,2.08
2023-02-11T03:20:14.618Z,1.75
2023-02-11T03:22:57.029Z,1.77
2023-02-11T03:25:31.816Z,1.60
2023-02-11T03:28:12.565Z,2.80
2023-02-11T03:30:45.571Z,1.52
2023-02-11T03:33:23.358Z,1.80
2023-02-11T03:35:57.458Z,2.00
2023-02-11T03:38:32.986Z,1.73
2023-02-11T03:41:02.115Z,1.90
2023-02-11T03:43:34.464Z,1.77
2023-02-11T03:46:03.629Z,2.03
2023-02-11T03:48:35.061Z,2.47
2023-02-11T03:51:04.246Z,2.40
2023-02-11T03:53:30.948Z,1.90
2023-02-11T03:56:01.448Z,2.90
2023-02-11T03:58:28.012Z,2.80
2023-02-11T04:00:54.548Z,3.05
2023-02-11T04:03:21.283Z,2.65
2023-02-11T04:05:49.128Z,2.80
2023-02-11T04:08:15.800Z,3.42
2023-02-11T04:10:42.479Z,3.13
2023-02-11T04:13:08.945Z,2.83
2023-02-11T04:15:35.454Z,3.13
2023-02-11T04:18:03.406Z,3.77
2023-02-11T04:20:30.244Z,3.20
2023-02-11T04:22:56.778Z,3.70
2023-02-11T04:25:23.273Z,3.03
2023-02-11T04:27:49.816Z,3.33
2023-02-11T04:30:16.407Z,3.43
2023-02-11T04:32:42.966Z,4.57
2023-02-11T04:35:10.000Z,3.67
2023-02-11T04:37:36.500Z,4.18
2023-02-11T04:40:03.367Z,3.80
2023-02-11T04:42:30.858Z,4.17
2023-02-11T04:44:57.334Z,4.35
2023-02-11T04:47:23.844Z,4.85
2023-02-11T04:49:50.395Z,4.45
2023-02-11T04:52:18.318Z,4.55
2023-02-11T04:54:44.806Z,5.10
2023-02-11T04:57:11.521Z,5.60
2023-02-11T04:59:38.279Z,5.22
2023-02-11T05:02:05.748Z,4.53
2023-02-11T05:04:32.513Z,5.13
2023-02-11T05:06:59.996Z,5.47
2023-02-11T05:09:26.628Z,4.95
2023-02-11T05:11:54.846Z,6.10
2023-02-11T05:14:21.323Z,5.68
2023-02-11T05:16:47.924Z,5.40
2023-02-11T05:19:14.511Z,5.07
2023-02-11T05:21:53.057Z,5.07
2023-02-11T05:24:23.423Z,5.43
2023-02-11T05:26:49.924Z,5.45
2023-02-11T05:29:16.446Z,5.75
2023-02-11T05:31:42.973Z,5.37
2023-02-11T05:34:09.563Z,6.32
2023-02-11T05:36:37.037Z,5.95
2023-02-11T05:39:03.646Z,5.95
2023-02-11T05:41:30.182Z,5.45
2023-02-11T05:43:56.731Z,5.37
2023-02-11T05:46:23.214Z,5.60
2023-02-11T05:48:49.804Z,6.05
2023-02-11T05:51:16.289Z,6.35
2023-02-11T05:53:43.949Z,5.95
2023-02-11T05:56:11.599Z,5.87
2023-02-11T05:58:38.838Z,6.10
2023-02-11T06:01:05.504Z,6.18
2023-02-11T06:03:32.075Z,6.03
2023-02-11T06:05:58.590Z,6.32
2023-02-11T06:08:25.606Z,5.77
2023-02-11T06:10:53.080Z,6.03
2023-02-11T06:13:19.757Z,6.20
2023-02-11T06:15:56.887Z,6.28
2023-02-11T06:18:23.581Z,7.28
2023-02-11T06:20:50.127Z,5.87
2023-02-11T06:23:16.759Z,7.57
2023-02-11T06:25:43.387Z,7.35
2023-02-11T06:28:10.733Z,8.85
2023-02-11T06:30:38.909Z,7.15
2023-02-11T06:33:07.834Z,8.13
2023-02-11T06:35:35.375Z,7.10
2023-02-11T06:38:02.100Z,7.57
2023-02-11T06:40:28.635Z,8.02
2023-02-11T06:42:55.348Z,8.52
2023-02-11T06:45:21.897Z,7.97
2023-02-11T06:47:51.048Z,8.55
2023-02-11T06:50:17.584Z,8.48
2023-02-11T06:52:45.170Z,8.75
2023-02-11T06:55:13.792Z,7.70
2023-02-11T06:57:40.380Z,7.63
2023-02-11T07:00:07.580Z,7.30
2023-02-11T07:02:34.112Z,7.78
2023-02-11T07:05:01.744Z,8.65
2023-02-11T07:07:28.407Z,8.93
2023-02-11T07:09:55.064Z,8.33
2023-02-11T07:12:21.655Z,7.78
2023-02-11T07:14:48.194Z,8.35
2023-02-11T07:17:15.287Z,8.45
2023-02-11T07:19:41.945Z,8.68
2023-02-11T07:22:08.456Z,9.40
2023-02-11T07:24:34.980Z,9.70
2023-02-11T07:27:01.448Z,8.27
2023-02-11T07:29:27.971Z,9.10
2023-02-11T07:31:55.749Z,8.70
2023-02-11T07:34:22.355Z,9.30
2023-02-11T07:36:50.295Z,9.20
2023-02-11T07:39:17.013Z,9.40
2023-02-11T07:41:44.504Z,9.98
2023-02-11T07:44:11.038Z,9.82
2023-02-11T07:46:37.666Z,9.77
2023-02-11T07:49:04.279Z,10.45
2023-02-11T07:51:31.440Z,8.82
2023-02-11T07:53:59.521Z,9.18
2023-02-11T07:56:27.029Z,9.05
2023-02-11T07:58:54.560Z,9.20
2023-02-11T08:01:25.898Z,9.30
2023-02-11T08:03:53.318Z,8.65
2023-02-11T08:06:21.645Z,8.85
2023-02-11T08:08:48.575Z,9.80
2023-02-11T08:11:17.914Z,9.57
2023-02-11T08:13:44.932Z,9.00
2023-02-11T08:16:20.743Z,8.82
2023-02-11T08:18:47.567Z,9.13
2023-02-11T08:21:14.151Z,8.48
2023-02-11T08:23:42.767Z,8.70
2023-02-11T08:26:12.550Z,8.82
2023-02-11T08:28:42.553Z,9.30
2023-02-11T08:31:13.761Z,8.13
2023-02-11T08:33:41.087Z,9.32
2023-02-11T08:36:09.934Z,8.80
2023-02-11T08:38:36.657Z,8.90
2023-02-11T08:41:03.499Z,8.63
2023-02-11T08:43:30.087Z,9.23
2023-02-11T08:45:56.966Z,9.55
2023-02-11T08:48:24.637Z,8.60
2023-02-11T08:50:52.189Z,9.35
2023-02-11T08:53:18.764Z,9.77
2023-02-11T08:55:50.431Z,8.95
2023-02-11T08:58:19.194Z,9.13
2023-02-11T09:00:46.197Z,8.90
2023-02-11T09:03:13.524Z,9.35
2023-02-11T09:05:50.064Z,9.32
2023-02-11T09:08:17.183Z,8.93
2023-02-11T09:10:43.976Z,8.80
2023-02-11T09:13:10.743Z,9.33
2023-02-11T09:15:37.415Z,8.48
2023-02-11T09:18:05.327Z,9.00
2023-02-11T09:20:32.002Z,8.25
2023-02-11T09:22:59.226Z,8.25
2023-02-11T09:25:26.536Z,8.70
2023-02-11T09:27:53.835Z,8.15
2023-02-11T09:30:20.771Z,7.93
2023-02-11T09:32:47.357Z,8.07
2023-02-11T09:35:14.048Z,8.32
2023-02-11T09:37:40.631Z,8.23
2023-02-11T09:40:07.644Z,7.90
2023-02-11T09:42:46.929Z,8.07
2023-02-11T09:45:25.034Z,7.68
2023-02-11T09:47:57.214Z,8.07
2023-02-11T09:50:32.061Z,7.77
2023-02-11T09:53:03.523Z,7.50
2023-02-11T09:55:38.012Z,8.00
2023-02-11T09:58:11.762Z,7.53
2023-02-11T10:00:54.088Z,7.63
2023-02-11T10:03:54.109Z,7.57
2023-02-11T10:06:36.768Z,7.55
2023-02-11T10:09:25.020Z,6.95
2023-02-11T10:12:04.896Z,7.20
2023-02-11T10:14:32.753Z,7.25
2023-02-11T10:17:18.973Z,7.30
2023-02-11T10:20:01.626Z,6.75
2023-02-11T10:22:37.598Z,6.43
2023-02-11T10:25:18.882Z,7.03
2023-02-11T10:27:45.929Z,6.97
2023-02-11T10:30:37.205Z,7.00
2023-02-11T10:33:15.429Z,7.22
2023-02-11T10:35:43.878Z,6.70
2023-02-11T10:38:11.946Z,6.22
2023-02-11T10:40:38.638Z,6.65
2023-02-11T10:43:11.797Z,5.70
2023-02-11T10:45:45.465Z,5.65
2023-02-11T10:48:39.989Z,6.05
2023-02-11T10:51:18.157Z,5.88
2023-02-11T10:53:45.969Z,6.00
2023-02-11T10:56:25.533Z,6.30
2023-02-11T10:58:59.807Z,5.65
2023-02-11T11:01:42.264Z,6.18
2023-02-11T11:04:30.052Z,6.10
2023-02-11T11:06:57.336Z,5.72
2023-02-11T11:09:43.374Z,6.27
2023-02-11T11:12:42.228Z,5.97
2023-02-11T11:15:23.394Z,6.13
2023-02-11T11:18:20.910Z,5.97
2023-02-11T11:20:59.543Z,5.28
2023-02-11T11:23:27.655Z,5.50
2023-02-11T11:26:04.156Z,6.72
2023-02-11T11:28:38.728Z,5.25
2023-02-11T11:31:12.336Z,5.93
2023-02-11T11:33:43.387Z,5.63
2023-02-11T11:36:13.051Z,5.67
2023-02-11T11:38:46.518Z,4.70
2023-02-11T11:41:15.051Z,5.35
2023-02-11T11:43:54.737Z,5.35
2023-02-11T11:46:28.499Z,5.22
2023-02-11T11:49:05.229Z,4.93
2023-02-11T11:51:33.769Z,4.65
2023-02-11T11:54:02.900Z,5.55
2023-02-11T11:56:33.773Z,4.20
2023-02-11T11:59:06.558Z,4.35
2023-02-11T12:02:02.006Z,4.40
2023-02-11T12:04:56.356Z,4.72
2023-02-11T12:07:50.311Z,3.75
2023-02-11T12:10:26.046Z,4.57
2023-02-11T12:13:23.015Z,4.30
2023-02-11T12:15:55.607Z,4.07
2023-02-11T12:18:46.155Z,3.60
2023-02-11T12:21:49.478Z,3.50
2023-02-11T12:24:34.656Z,3.67
2023-02-11T12:27:10.860Z,3.20
2023-02-11T12:30:12.225Z,3.13
2023-02-11T12:32:53.573Z,3.47
2023-02-11T12:35:37.124Z,3.17
2023-02-11T12:38:16.109Z,3.38
2023-02-11T12:40:45.613Z,3.10
2023-02-11T12:43:25.378Z,3.20
2023-02-11T12:46:27.892Z,2.92
2023-02-11T12:49:11.968Z,3.20
2023-02-11T12:51:55.698Z,3.00
2023-02-11T12:54:29.503Z,3.15
2023-02-11T12:57:05.984Z,3.00
2023-02-11T12:59:50.981Z,3.35
2023-02-11T13:02:34.858Z,3.08
2023-02-11T13:05:15.919Z,3.35
2023-02-11T13:07:46.362Z,2.75
2023-02-11T13:10:13.886Z,3.47
2023-02-11T13:13:03.434Z,3.00
2023-02-11T13:15:31.384Z,3.17
2023-02-11T13:18:20.622Z,3.22
2023-02-11T13:20:57.491Z,3.40
2023-02-11T13:23:34.525Z,3.53
2023-02-11T13:26:19.527Z,3.25
2023-02-11T13:28:56.962Z,2.60
2023-02-11T13:31:27.050Z,2.95
2023-02-11T13:33:53.695Z,2.80
2023-02-11T13:36:24.752Z,3.03
2023-02-11T13:38:55.952Z,2.85
2023-02-11T13:41:27.786Z,3.08
2023-02-11T13:44:03.873Z,3.55
2023-02-11T13:46:50.961Z,3.20
2023-02-11T13:49:40.940Z,3.50
2023-02-11T13:52:23.629Z,3.28
2023-02-11T13:54:53.323Z,2.92
2023-02-11T13:57:19.754Z,3.05
2023-02-11T13:59:49.723Z,3.22
2023-02-11T14:02:36.007Z,2.83
2023-02-11T14:05:22.117Z,2.83
2023-02-11T14:08:44.652Z,3.08
2023-02-11T14:11:25.206Z,3.05
2023-02-11T14:13:51.745Z,2.60
2023-02-11T14:16:35.583Z,3.23
2023-02-11T14:19:03.237Z,2.80
2023-02-11T14:21:35.601Z,3.40
2023-02-11T14:24:02.121Z,3.20
2023-02-11T14:26:42.450Z,3.13
2023-02-11T14:29:19.904Z,3.77
2023-02-11T14:32:05.656Z,3.40
2023-02-11T14:34:54.193Z,3.58
2023-02-11T14:37:50.313Z,2.72
2023-02-11T14:40:30.772Z,2.58
2023-02-11T14:43:18.554Z,3.27
2023-02-11T14:46:42.128Z,3.28
2023-02-11T14:49:47.642Z,2.75
2023-02-11T14:52:27.513Z,3.00
2023-02-11T14:55:06.583Z,2.63
2023-02-11T14:57:33.529Z,2.30
2023-02-11T15:00:04.341Z,2.78
2023-02-11T15:02:37.008Z,2.78
2023-02-11T15:05:23.687Z,2.85
2023-02-11T15:07:54.691Z,2.60
2023-02-11T15:10:29.931Z,3.23
2023-02-11T15:12:57.875Z,2.20
2023-02-11T15:15:26.140Z,2.58
2023-02-11T15:17:53.453Z,2.60
2023-02-11T15:20:24.975Z,2.92
2023-02-11T15:22:58.907Z,3.10
2023-02-11T15:25:27.871Z,2.60
2023-02-11T15:27:57.085Z,2.72
2023-02-11T15:30:24.854Z,2.65
2023-02-11T15:32:58.803Z,2.55
2023-02-11T15:35:28.668Z,3.03
2023-02-11T15:37:57.530Z,2.97
2023-02-11T15:40:27.985Z,2.50
2023-02-11T15:42:58.669Z,2.50
2023-02-11T15:45:30.785Z,2.63
2023-02-11T15:48:11.788Z,2.73
2023-02-11T15:50:41.111Z,2.50
2023-02-11T15:53:25.678Z,3.13
2023-02-11T15:56:00.983Z,2.97
2023-02-11T15:58:27.601Z,2.88
2023-02-11T16:00:59.738Z,2.60
2023-02-11T16:03:32.608Z,2.72
2023-02-11T16:06:23.985Z,2.88
2023-02-11T16:08:58.831Z,2.47
2023-02-11T16:11:32.521Z,2.40
2023-02-11T16:14:01.849Z,2.30
2023-02-11T16:16:31.961Z,2.25
2023-02-11T16:21:45.526Z,2.65
2023-02-11T16:24:21.760Z,2.50
2023-02-11T16:26:53.293Z,2.60
2023-02-11T16:29:25.214Z,2.83
2023-02-11T16:31:53.576Z,2.95
2023-02-11T16:34:22.925Z,2.45
2023-02-11T16:36:51.710Z,2.35
2023-02-11T16:39:22.507Z,2.37
2023-02-11T16:41:51.862Z,2.25
2023-02-11T16:44:18.770Z,2.60
2023-02-11T16:46:45.668Z,2.55
2023-02-11T16:49:20.031Z,2.67
2023-02-11T16:51:50.223Z,2.30
2023-02-11T16:54:18.267Z,2.55
2023-02-11T16:56:45.624Z,2.50
2023-02-11T16:59:13.688Z,2.83
2023-02-11T17:01:42.529Z,2.55
2023-02-11T17:04:30.907Z,2.17
2023-02-11T17:06:58.679Z,2.35
2023-02-11T17:09:30.464Z,2.97
2023-02-11T17:11:58.755Z,2.65
2023-02-11T17:14:25.506Z,2.72
2023-02-11T17:16:52.347Z,3.07
2023-02-11T17:19:22.185Z,3.00
2023-02-11T17:21:51.441Z,2.67
2023-02-11T17:24:19.617Z,2.65
2023-02-11T17:26:47.317Z,3.50
2023-02-11T17:29:17.437Z,2.87
2023-02-11T17:31:44.467Z,3.38
2023-02-11T17:34:11.671Z,3.03
2023-02-11T17:36:38.415Z,3.75
2023-02-11T17:39:08.153Z,3.25
2023-02-11T17:41:36.221Z,3.30
2023-02-11T17:44:03.118Z,3.28
2023-02-11T17:46:29.696Z,3.67
2023-02-11T17:48:58.840Z,3.20
2023-02-11T17:51:29.304Z,3.35
2023-02-11T17:57:02.625Z,3.10
2023-02-11T17:59:35.239Z,2.75
2023-02-11T18:02:03.868Z,3.60
2023-02-11T18:04:31.405Z,3.33
2023-02-11T18:06:59.017Z,3.90
2023-02-11T18:09:26.605Z,2.20
2023-02-11T18:11:53.472Z,4.15
2023-02-11T18:14:21.845Z,3.45
2023-02-11T18:16:51.239Z,3.60
2023-02-11T18:19:18.577Z,3.30
2023-02-11T18:21:48.740Z,3.40
2023-02-11T18:24:16.470Z,4.10
2023-02-11T18:26:43.435Z,4.20
2023-02-11T18:29:10.164Z,3.75
2023-02-11T18:31:37.825Z,4.07
2023-02-11T18:34:07.876Z,4.60
2023-02-11T18:36:34.880Z,4.47
2023-02-11T18:39:01.433Z,4.18
2023-02-11T18:41:28.166Z,3.90
2023-02-11T18:44:00.472Z,4.90
2023-02-11T18:46:27.160Z,4.25
2023-02-11T18:48:56.069Z,4.63
2023-02-11T18:51:23.174Z,4.72
2023-02-11T18:53:49.888Z,4.30
2023-02-11T18:56:20.744Z,4.70
2023-02-11T18:58:47.841Z,4.53
2023-02-11T19:01:19.615Z,4.32
2023-02-11T19:03:46.759Z,4.20
2023-02-11T19:06:16.715Z,4.22
2023-02-11T19:08:44.967Z,3.90
2023-02-11T19:11:12.666Z,4.22
2023-02-11T19:13:39.285Z,4.07
2023-02-11T19:16:11.172Z,4.20
2023-02-11T19:18:38.787Z,3.60
2023-02-11T19:21:09.436Z,4.97
2023-02-11T19:23:36.767Z,3.80
2023-02-11T19:26:04.678Z,4.00
2023-02-11T19:28:32.059Z,3.53
2023-02-11T19:31:04.616Z,4.10
2023-02-11T19:33:31.192Z,3.97
2023-02-11T19:36:03.404Z,4.05
2023-02-11T19:38:29.937Z,3.95
2023-02-11T19:40:57.101Z,3.53
2023-02-11T19:43:24.010Z,4.43
2023-02-11T19:45:51.563Z,4.57
2023-02-11T19:48:18.263Z,4.65
2023-02-11T19:50:45.875Z,4.10
2023-02-11T19:53:12.419Z,4.15
2023-02-11T19:55:38.943Z,4.20
2023-02-11T19:58:05.550Z,4.17
2023-02-11T20:00:32.039Z,4.25
2023-02-11T20:02:58.717Z,4.05
2023-02-11T20:05:25.271Z,3.92
2023-02-11T20:07:52.839Z,3.85
2023-02-11T20:10:19.415Z,3.77
2023-02-11T20:12:45.935Z,4.43
2023-02-11T20:15:12.475Z,3.90
2023-02-11T20:17:38.984Z,4.18
2023-02-11T20:20:07.089Z,4.32
2023-02-11T20:22:33.827Z,4.00
2023-02-11T20:25:00.415Z,4.45
2023-02-11T20:27:29.413Z,4.07
2023-02-11T20:29:55.921Z,4.00
2023-02-11T20:32:22.524Z,3.75
2023-02-11T20:34:49.145Z,4.03
2023-02-11T20:37:15.825Z,4.75
2023-02-11T20:39:44.789Z,4.13
2023-02-11T20:42:13.176Z,4.00
2023-02-11T20:44:39.711Z,3.35
2023-02-11T20:47:06.562Z,4.40
2023-02-11T20:49:33.132Z,3.85
2023-02-11T20:51:59.683Z,4.10
2023-02-11T20:54:27.250Z,3.90
2023-02-11T20:56:54.319Z,3.83
2023-02-11T20:59:21.648Z,4.23
2023-02-11T21:01:50.872Z,3.85
2023-02-11T21:04:20.415Z,4.18
2023-02-11T21:06:49.495Z,4.03
2023-02-11T21:09:19.806Z,4.55
2023-02-11T21:11:48.504Z,4.20
2023-02-11T21:14:15.396Z,4.32
2023-02-11T21:16:42.322Z,4.07
2023-02-11T21:19:08.969Z,4.05
2023-02-11T21:21:37.698Z,4.10
2023-02-11T21:24:05.998Z,3.90
2023-02-11T21:26:32.964Z,4.13
2023-02-11T21:28:59.599Z,3.80
2023-02-11T21:31:28.806Z,3.45
2023-02-11T21:33:56.679Z,4.75
2023-02-11T21:36:23.814Z,3.80
2023-02-11T21:38:50.672Z,3.90
2023-02-11T21:41:18.587Z,4.18
2023-02-11T21:43:45.400Z,4.20
2023-02-11T21:46:14.566Z,4.22
2023-02-11T21:48:41.587Z,4.53
2023-02-11T21:51:11.437Z,4.40
2023-02-11T21:53:38.705Z,4.18
2023-02-11T21:56:07.396Z,4.32
2023-02-11T21:58:34.005Z,4.10
2023-02-11T22:01:00.974Z,4.33
2023-02-11T22:03:28.014Z,4.35
2023-02-11T22:05:55.055Z,4.72
2023-02-11T22:08:22.866Z,4.53
2023-02-11T22:10:49.432Z,4.43
2023-02-11T22:13:17.121Z,4.20
2023-02-11T22:15:43.716Z,4.18
2023-02-11T22:18:10.214Z,4.30
2023-02-11T22:20:36.819Z,4.35
2023-02-11T22:23:03.380Z,4.13
2023-02-11T22:25:30.008Z,4.90
2023-02-11T22:27:56.644Z,4.53
2023-02-11T22:30:23.190Z,4.30
2023-02-11T22:32:49.802Z,4.47
2023-02-11T22:35:16.411Z,4.57
2023-02-11T22:37:42.943Z,4.03
2023-02-11T22:40:09.946Z,4.70
2023-02-11T22:42:36.514Z,4.68
2023-02-11T22:45:04.158Z,4.60
2023-02-11T22:47:30.702Z,4.95
2023-02-11T22:49:57.221Z,4.77
2023-02-11T22:52:23.812Z,4.93
2023-02-11T22:54:51.719Z,5.25
2023-02-11T22:57:18.208Z,5.47
2023-02-11T22:59:44.833Z,4.78
2023-02-11T23:02:11.488Z,5.53
2023-02-11T23:04:38.202Z,5.47
2023-02-11T23:07:04.749Z,5.75
2023-02-11T23:09:31.372Z,4.53
2023-02-11T23:11:57.990Z,5.30
2023-02-11T23:14:24.860Z,5.27
2023-02-11T23:16:51.573Z,5.85
2023-02-11T23:19:19.309Z,5.90
2023-02-11T23:21:45.948Z,6.43
2023-02-11T23:24:14.343Z,5.68
2023-02-11T23:26:43.812Z,5.50
2023-02-11T23:29:12.237Z,5.78
2023-02-11T23:31:41.031Z,5.80
2023-02-11T23:34:08.291Z,5.22
2023-02-11T23:36:35.089Z,5.88
2023-02-11T23:39:01.635Z,6.00
2023-02-11T23:41:28.235Z,5.53
2023-02-11T23:43:56.763Z,6.10
2023-02-11T23:46:24.979Z,6.03
2023-02-11T23:48:52.274Z,5.70
2023-02-11T23:51:19.651Z,6.10
2023-02-11T23:53:46.397Z,5.70
2023-02-11T23:56:17.191Z,5.97
2023-02-11T23:58:44.837Z,6.28
